createdAt,value
2018-11-10T00:01:01.622Z,36.53
2018-11-10T00:03:28.945Z,37.10
2018-11-10T00:05:56.218Z,37.13
2018-11-10T00:08:23.581Z,38.00
2018-11-10T00:10:50.822Z,37.10
2018-11-10T00:13:18.145Z,36.77
2018-11-10T00:15:45.426Z,35.20
2018-11-10T00:18:12.877Z,36.30
2018-11-10T00:20:40.211Z,37.20
2018-11-10T00:23:07.439Z,35.50
2018-11-10T00:25:34.704Z,35.97
2018-11-10T00:28:02.008Z,36.50
2018-11-10T00:30:29.257Z,37.10
2018-11-10T00:32:56.829Z,34.73
2018-11-10T00:35:24.512Z,35.13
2018-11-10T00:37:51.989Z,36.10
2018-11-10T00:40:19.257Z,35.97
2018-11-10T00:42:46.518Z,34.27
2018-11-10T00:45:13.908Z,34.20
2018-11-10T00:47:41.240Z,34.73
2018-11-10T00:50:09.005Z,35.37
2018-11-10T00:52:36.501Z,33.53
2018-11-10T00:55:04.109Z,33.97
2018-11-10T00:57:32.792Z,32.77
2018-11-10T01:00:00.164Z,34.27
2018-11-10T01:02:27.587Z,32.20
2018-11-10T01:04:54.962Z,32.97
2018-11-10T01:07:22.466Z,34.60
2018-11-10T01:09:49.802Z,33.57
2018-11-10T01:12:17.097Z,34.40
2018-11-10T01:14:44.472Z,35.30
2018-11-10T01:17:11.794Z,34.43
2018-11-10T01:19:39.185Z,35.27
2018-11-10T01:22:06.757Z,35.33
2018-11-10T01:24:34.117Z,33.07
2018-11-10T01:27:01.377Z,32.10
2018-11-10T01:29:28.715Z,32.57
2018-11-10T01:31:56.069Z,33.27
2018-11-10T01:34:23.433Z,32.37
2018-11-10T01:36:50.743Z,32.77
2018-11-10T01:39:18.087Z,32.20
2018-11-10T01:41:45.379Z,29.97
2018-11-10T01:44:12.825Z,28.87
2018-11-10T01:46:40.146Z,30.70
2018-11-10T01:49:07.425Z,31.03
2018-11-10T01:51:34.799Z,29.90
2018-11-10T01:54:02.489Z,29.60
2018-11-10T01:56:29.949Z,30.93
2018-11-10T01:58:57.654Z,32.10
2018-11-10T02:01:25.233Z,30.47
2018-11-10T02:03:52.645Z,31.33
2018-11-10T02:06:19.991Z,29.93
2018-11-10T02:08:47.337Z,32.13
2018-11-10T02:11:14.617Z,31.77
2018-11-10T02:13:42.408Z,32.33
2018-11-10T02:16:10.103Z,30.13
2018-11-10T02:18:38.332Z,30.60
2018-11-10T02:21:06.178Z,31.63
2018-11-10T02:23:34.173Z,31.67
2018-11-10T02:26:02.714Z,30.87
2018-11-10T02:28:30.559Z,29.97
2018-11-10T02:30:58.499Z,30.43
2018-11-10T02:33:26.337Z,29.80
2018-11-10T02:35:54.132Z,30.10
2018-11-10T02:38:21.645Z,29.80
2018-11-10T02:40:49.450Z,29.87
2018-11-10T02:43:17.460Z,28.63
2018-11-10T02:45:45.650Z,28.30
2018-11-10T02:48:13.726Z,29.20
2018-11-10T02:50:41.562Z,28.63
2018-11-10T02:53:09.442Z,30.60
2018-11-10T02:55:38.135Z,29.50
2018-11-10T02:58:06.032Z,28.43
2018-11-10T03:00:34.001Z,29.07
2018-11-10T03:03:01.847Z,28.07
2018-11-10T03:05:29.797Z,28.20
2018-11-10T03:07:57.611Z,28.90
2018-11-10T03:10:25.576Z,28.57
2018-11-10T03:12:53.649Z,29.50
2018-11-10T03:15:21.502Z,28.10
2018-11-10T03:17:49.600Z,27.73
2018-11-10T03:20:17.887Z,28.53
2018-11-10T03:22:45.705Z,28.83
2018-11-10T03:25:14.533Z,27.27
2018-11-10T03:27:42.489Z,25.60
2018-11-10T03:30:10.456Z,26.00
2018-11-10T03:32:38.462Z,27.50
2018-11-10T03:35:07.860Z,27.17
2018-11-10T03:37:35.496Z,26.10
2018-11-10T03:40:03.267Z,28.50
2018-11-10T03:42:31.456Z,27.27
2018-11-10T03:44:59.305Z,25.70
2018-11-10T03:47:27.192Z,27.10
2018-11-10T03:49:55.112Z,27.07
2018-11-10T03:52:22.859Z,27.10
2018-11-10T03:54:51.811Z,25.97
2018-11-10T03:57:19.658Z,25.30
2018-11-10T03:59:47.435Z,25.33
2018-11-10T04:02:15.361Z,26.47
2018-11-10T04:04:43.176Z,26.37
2018-11-10T04:07:11.084Z,25.93
2018-11-10T04:09:39.281Z,26.67
2018-11-10T04:12:07.260Z,25.10
2018-11-10T04:14:35.028Z,25.23
2018-11-10T04:17:03.015Z,25.87
2018-11-10T04:19:30.883Z,23.73
2018-11-10T04:21:58.696Z,23.23
2018-11-10T04:24:26.898Z,23.40
2018-11-10T04:26:54.588Z,24.40
2018-11-10T04:29:22.456Z,24.23
2018-11-10T04:31:51.533Z,21.80
2018-11-10T04:34:19.644Z,23.03
2018-11-10T04:36:47.426Z,23.17
2018-11-10T04:39:14.938Z,21.33
2018-11-10T04:41:42.810Z,23.07
2018-11-10T04:44:10.526Z,20.97
2018-11-10T04:46:38.454Z,22.33
2018-11-10T04:49:06.435Z,21.50
2018-11-10T04:51:34.471Z,21.90
2018-11-10T04:54:02.352Z,20.17
2018-11-10T04:56:30.864Z,22.20
2018-11-10T04:58:58.835Z,21.53
2018-11-10T05:01:27.328Z,22.00
2018-11-10T05:03:55.401Z,21.97
2018-11-10T05:06:23.387Z,19.67
2018-11-10T05:08:50.920Z,19.60
2018-11-10T05:11:20.795Z,20.23
2018-11-10T05:13:48.598Z,15.00
2018-11-10T05:16:16.382Z,23.40
2018-11-10T05:18:48.527Z,13.60
2018-11-10T05:21:16.340Z,21.17
2018-11-10T05:23:44.069Z,19.73
2018-11-10T05:26:13.814Z,20.10
2018-11-10T05:28:44.471Z,19.33
2018-11-10T05:31:14.555Z,20.50
2018-11-10T05:33:42.131Z,19.20
2018-11-10T05:36:17.858Z,20.20
2018-11-10T05:38:45.582Z,19.10
2018-11-10T05:41:15.525Z,20.67
2018-11-10T05:43:48.037Z,19.80
2018-11-10T05:46:15.900Z,20.40
2018-11-10T05:48:46.647Z,19.90
2018-11-10T05:51:19.379Z,19.53
2018-11-10T05:53:46.980Z,19.40
2018-11-10T05:56:16.854Z,19.30
2018-11-10T05:58:44.570Z,18.40
2018-11-10T06:01:14.711Z,18.60
2018-11-10T06:03:50.127Z,18.97
2018-11-10T06:06:21.370Z,18.80
2018-11-10T06:08:52.091Z,17.87
2018-11-10T06:11:21.557Z,17.33
2018-11-10T06:13:52.272Z,18.60
2018-11-10T06:16:19.777Z,17.73
2018-11-10T06:18:47.309Z,20.33
2018-11-10T06:21:14.901Z,18.47
2018-11-10T06:23:42.394Z,20.80
2018-11-10T06:26:14.420Z,21.40
2018-11-10T06:28:55.701Z,21.40
2018-11-10T06:31:30.457Z,23.33
2018-11-10T06:34:04.422Z,20.70
2018-11-10T06:37:10.796Z,18.50
2018-11-10T06:39:48.691Z,17.13
2018-11-10T06:42:23.480Z,18.67
2018-11-10T06:44:55.430Z,19.23
2018-11-10T06:47:28.074Z,17.37
2018-11-10T06:49:57.748Z,18.43
2018-11-10T06:52:28.539Z,18.03
2018-11-10T06:54:58.063Z,17.70
2018-11-10T06:57:29.041Z,28.40
2018-11-10T07:00:01.879Z,29.10
2018-11-10T07:02:31.790Z,25.63
2018-11-10T07:05:06.395Z,24.47
2018-11-10T07:07:39.436Z,22.43
2018-11-10T07:10:07.306Z,17.50
2018-11-10T07:12:37.962Z,16.07
2018-11-10T07:15:07.470Z,13.27
2018-11-10T07:17:35.719Z,15.30
2018-11-10T07:20:09.195Z,15.10
2018-11-10T07:22:38.782Z,14.30
2018-11-10T07:25:21.130Z,13.20
2018-11-10T07:27:49.856Z,12.60
2018-11-10T07:30:20.728Z,12.47
2018-11-10T07:32:50.414Z,12.40
2018-11-10T07:35:19.620Z,12.10
2018-11-10T07:37:52.208Z,12.00
2018-11-10T07:40:22.200Z,11.43
2018-11-10T07:42:51.849Z,11.17
2018-11-10T07:45:20.732Z,10.80
2018-11-10T07:47:49.443Z,10.17
2018-11-10T07:50:20.586Z,10.97
2018-11-10T07:52:49.686Z,10.60
2018-11-10T07:55:19.891Z,10.43
2018-11-10T07:57:49.250Z,10.90
2018-11-10T08:00:19.408Z,10.90
2018-11-10T08:02:49.693Z,10.00
2018-11-10T08:05:18.653Z,10.33
2018-11-10T08:07:49.505Z,10.00
2018-11-10T08:10:18.598Z,9.00
2018-11-10T08:12:48.515Z,9.40
2018-11-10T08:15:19.788Z,10.10
2018-11-10T08:17:49.806Z,8.73
2018-11-10T08:20:18.687Z,8.70
2018-11-10T08:22:49.062Z,8.97
2018-11-10T08:25:18.310Z,8.30
2018-11-10T08:27:48.154Z,8.83
2018-11-10T08:30:18.243Z,8.07
2018-11-10T08:32:49.724Z,7.87
2018-11-10T08:35:19.111Z,7.90
2018-11-10T08:37:49.759Z,8.27
2018-11-10T08:40:19.955Z,7.57
2018-11-10T08:42:49.888Z,7.60
2018-11-10T08:45:20.808Z,7.93
2018-11-10T08:47:50.081Z,9.13
2018-11-10T08:50:20.051Z,9.53
2018-11-10T08:52:49.438Z,8.43
2018-11-10T08:55:19.321Z,10.47
2018-11-10T08:57:48.046Z,8.43
2018-11-10T09:00:17.104Z,8.77
2018-11-10T09:02:46.451Z,9.20
2018-11-10T09:05:15.344Z,8.70
2018-11-10T09:07:44.935Z,10.13
2018-11-10T09:10:14.674Z,10.17
2018-11-10T09:12:44.102Z,10.53
2018-11-10T09:15:14.470Z,10.43
2018-11-10T09:17:43.663Z,10.60
2018-11-10T09:20:14.320Z,9.87
2018-11-10T09:22:45.001Z,9.83
2018-11-10T09:25:15.176Z,10.60
2018-11-10T09:27:46.003Z,9.90
2018-11-10T09:30:16.389Z,10.27
2018-11-10T09:32:45.661Z,9.27
2018-11-10T09:35:14.831Z,11.17
2018-11-10T09:37:45.248Z,10.87
2018-11-10T09:40:15.394Z,11.23
2018-11-10T09:42:45.596Z,11.07
2018-11-10T09:45:16.091Z,11.77
2018-11-10T09:47:45.799Z,10.90
2018-11-10T09:50:18.005Z,12.00
2018-11-10T09:52:47.733Z,12.53
2018-11-10T09:55:17.624Z,12.77
2018-11-10T09:57:47.442Z,11.40
2018-11-10T10:00:19.360Z,13.00
2018-11-10T10:02:49.464Z,12.30
2018-11-10T10:05:18.595Z,11.10
2018-11-10T10:07:49.328Z,12.30
2018-11-10T10:10:22.438Z,12.33
2018-11-10T10:12:51.021Z,12.53
2018-11-10T10:15:19.539Z,13.10
2018-11-10T10:17:48.400Z,12.77
2018-11-10T10:20:19.223Z,13.27
2018-11-10T10:22:51.169Z,12.60
2018-11-10T10:25:21.692Z,12.20
2018-11-10T10:27:51.754Z,12.17
2018-11-10T10:30:23.746Z,11.90
2018-11-10T10:32:54.439Z,11.63
2018-11-10T10:35:25.604Z,12.93
2018-11-10T10:37:54.865Z,11.77
2018-11-10T10:40:23.316Z,12.50
2018-11-10T10:42:51.911Z,12.90
2018-11-10T10:45:23.639Z,12.50
2018-11-10T10:47:52.779Z,12.50
2018-11-10T10:50:24.377Z,11.40
2018-11-10T10:52:53.635Z,12.20
2018-11-10T10:55:23.971Z,11.77
2018-11-10T10:57:54.781Z,11.50
2018-11-10T11:00:28.512Z,12.80
2018-11-10T11:03:03.514Z,12.50
2018-11-10T11:05:43.368Z,13.50
2018-11-10T11:08:13.184Z,13.07
2018-11-10T11:10:44.617Z,12.80
2018-11-10T11:13:15.623Z,12.87
2018-11-10T11:15:46.767Z,13.00
2018-11-10T11:18:17.158Z,13.80
2018-11-10T11:20:48.063Z,13.77
2018-11-10T11:23:18.100Z,13.10
2018-11-10T11:25:49.385Z,13.50
2018-11-10T11:28:20.580Z,13.37
2018-11-10T11:30:53.220Z,13.50
2018-11-10T11:33:26.592Z,14.20
2018-11-10T11:35:58.242Z,14.17
2018-11-10T11:38:30.203Z,13.47
2018-11-10T11:41:00.146Z,13.73
2018-11-10T11:43:29.529Z,14.00
2018-11-10T11:45:59.840Z,13.37
2018-11-10T11:48:28.702Z,13.73
2018-11-10T11:50:57.380Z,13.80
2018-11-10T11:53:26.378Z,13.60
2018-11-10T11:55:54.733Z,13.33
2018-11-10T11:58:25.031Z,15.37
2018-11-10T12:00:55.426Z,14.30
2018-11-10T12:03:25.324Z,13.27
2018-11-10T12:05:54.436Z,14.50
2018-11-10T12:08:26.230Z,13.43
2018-11-10T12:10:56.415Z,13.60
2018-11-10T12:13:25.969Z,13.30
2018-11-10T12:15:55.139Z,13.27
2018-11-10T12:18:24.742Z,12.90
2018-11-10T12:20:54.963Z,14.33
2018-11-10T12:23:25.536Z,13.70
2018-11-10T12:25:54.590Z,12.67
2018-11-10T12:28:24.474Z,13.93
2018-11-10T12:30:55.581Z,13.17
2018-11-10T12:33:25.277Z,12.50
2018-11-10T12:35:55.059Z,13.23
2018-11-10T12:38:24.498Z,13.23
2018-11-10T12:40:53.333Z,12.47
2018-11-10T12:43:22.958Z,14.00
2018-11-10T12:45:52.373Z,13.40
2018-11-10T12:48:21.543Z,13.20
2018-11-10T12:50:54.162Z,13.23
2018-11-10T12:53:23.482Z,12.33
2018-11-10T12:55:54.762Z,13.43
2018-11-10T12:58:23.740Z,13.90
2018-11-10T13:00:52.971Z,13.87
2018-11-10T13:03:21.574Z,13.20
2018-11-10T13:05:49.771Z,15.20
2018-11-10T13:08:17.859Z,13.33
2018-11-10T13:10:46.141Z,14.27
2018-11-10T13:13:14.487Z,13.40
2018-11-10T13:16:45.378Z,14.20
2018-11-10T13:19:13.932Z,14.73
2018-11-10T13:21:43.880Z,14.70
2018-11-10T13:24:13.872Z,14.53
2018-11-10T13:26:44.098Z,14.77
2018-11-10T13:29:14.015Z,14.10
2018-11-10T13:31:42.437Z,14.77
2018-11-10T13:34:12.941Z,14.43
2018-11-10T13:36:43.378Z,14.23
2018-11-10T13:39:12.133Z,15.60
2018-11-10T13:41:40.416Z,15.47
2018-11-10T13:44:09.151Z,14.27
2018-11-10T13:46:36.954Z,16.50
2018-11-10T13:49:04.830Z,16.00
2018-11-10T13:51:32.618Z,16.87
2018-11-10T13:54:00.797Z,16.43
2018-11-10T13:56:28.434Z,16.33
2018-11-10T13:58:56.468Z,15.60
2018-11-10T14:01:24.193Z,15.67
2018-11-10T14:03:52.413Z,16.47
2018-11-10T14:06:20.206Z,16.03
2018-11-10T14:08:48.976Z,16.87
2018-11-10T14:11:17.071Z,17.80
2018-11-10T14:13:44.816Z,17.23
2018-11-10T14:16:12.557Z,17.07
2018-11-10T14:18:40.265Z,17.23
2018-11-10T14:21:07.953Z,18.20
2018-11-10T14:23:35.927Z,17.70
2018-11-10T14:26:03.628Z,18.43
2018-11-10T14:28:31.854Z,17.40
2018-11-10T14:30:59.727Z,19.47
2018-11-10T14:33:27.427Z,17.57
2018-11-10T14:35:55.382Z,18.00
2018-11-10T14:38:23.103Z,19.10
2018-11-10T14:40:51.410Z,18.73
2018-11-10T14:43:19.585Z,17.80
2018-11-10T14:45:48.061Z,17.23
2018-11-10T14:48:16.296Z,18.47
2018-11-10T14:50:44.329Z,17.60
2018-11-10T14:53:13.362Z,19.20
2018-11-10T14:55:40.974Z,17.20
2018-11-10T14:58:08.749Z,17.40
2018-11-10T15:00:37.036Z,16.53
2018-11-10T15:03:05.804Z,17.70
2018-11-10T15:05:33.649Z,16.23
2018-11-10T15:08:01.238Z,17.47
2018-11-10T15:10:29.938Z,16.53
2018-11-10T15:12:57.610Z,16.40
2018-11-10T15:15:25.304Z,15.80
2018-11-10T15:17:53.295Z,16.97
2018-11-10T15:20:21.023Z,15.87
2018-11-10T15:22:48.754Z,16.17
2018-11-10T15:25:18.059Z,16.30
2018-11-10T15:27:45.791Z,16.93
2018-11-10T15:30:14.660Z,15.60
2018-11-10T15:33:46.032Z,15.30
2018-11-10T15:36:13.579Z,15.70
2018-11-10T15:38:41.170Z,15.90
2018-11-10T15:41:08.914Z,17.20
2018-11-10T15:43:36.528Z,15.87
2018-11-10T15:46:04.582Z,17.47
2018-11-10T15:48:32.199Z,16.20
2018-11-10T15:51:00.821Z,15.67
2018-11-10T15:53:29.390Z,16.77
2018-11-10T15:55:57.160Z,15.73
2018-11-10T15:58:24.819Z,15.70
2018-11-10T16:00:52.395Z,16.87
2018-11-10T16:03:20.014Z,15.87
2018-11-10T16:05:48.751Z,17.57
2018-11-10T16:08:16.592Z,17.23
2018-11-10T16:10:44.354Z,15.70
2018-11-10T16:13:11.972Z,15.50
2018-11-10T16:15:40.011Z,15.70
2018-11-10T16:18:07.649Z,14.60
2018-11-10T16:20:35.380Z,15.97
2018-11-10T16:23:03.712Z,16.17
2018-11-10T16:25:32.334Z,16.00
2018-11-10T16:28:00.578Z,16.00
2018-11-10T16:30:28.220Z,17.60
2018-11-10T16:32:56.073Z,16.73
2018-11-10T16:35:23.790Z,19.20
2018-11-10T16:37:51.500Z,15.40
2018-11-10T16:40:20.134Z,16.37
2018-11-10T16:42:48.390Z,16.00
2018-11-10T16:45:17.454Z,14.50
2018-11-10T16:47:45.274Z,14.13
2018-11-10T16:50:14.071Z,13.93
2018-11-10T16:52:42.855Z,15.00
2018-11-10T16:55:10.637Z,15.10
2018-11-10T16:57:39.097Z,13.30
2018-11-10T17:00:12.425Z,14.47
2018-11-10T17:02:40.130Z,13.57
2018-11-10T17:05:08.199Z,13.03
2018-11-10T17:07:35.904Z,14.67
2018-11-10T17:10:03.763Z,13.10
2018-11-10T17:12:31.320Z,15.03
2018-11-10T17:14:59.929Z,14.10
2018-11-10T17:17:27.471Z,15.67
2018-11-10T17:19:55.133Z,15.60
2018-11-10T17:22:23.745Z,13.77
2018-11-10T17:24:51.367Z,16.77
2018-11-10T17:27:19.083Z,19.37
2018-11-10T17:29:46.717Z,19.53
2018-11-10T17:32:14.471Z,19.00
2018-11-10T17:34:42.072Z,17.80
2018-11-10T17:37:09.665Z,16.33
2018-11-10T17:39:37.299Z,16.07
2018-11-10T17:42:05.032Z,15.97
2018-11-10T17:44:32.594Z,16.97
2018-11-10T17:47:00.245Z,15.90
2018-11-10T17:49:27.841Z,17.00
2018-11-10T17:51:55.605Z,16.60
2018-11-10T17:54:23.285Z,16.40
2018-11-10T17:56:50.845Z,15.67
2018-11-10T17:59:18.558Z,16.30
2018-11-10T18:01:46.211Z,16.77
2018-11-10T18:04:13.808Z,15.60
2018-11-10T18:06:41.359Z,15.40
2018-11-10T18:09:10.332Z,15.43
2018-11-10T18:11:39.300Z,16.47
2018-11-10T18:14:07.347Z,16.03
2018-11-10T18:16:35.140Z,15.30
2018-11-10T18:19:02.881Z,14.60
2018-11-10T18:21:30.484Z,15.80
2018-11-10T18:23:58.151Z,15.77
2018-11-10T18:26:26.592Z,17.00
2018-11-10T18:28:54.318Z,14.80
2018-11-10T18:31:22.539Z,16.40
2018-11-10T18:33:50.743Z,16.80
2018-11-10T18:36:18.600Z,17.20
2018-11-10T18:38:46.363Z,15.67
2018-11-10T18:41:14.069Z,15.80
2018-11-10T18:43:41.712Z,16.37
2018-11-10T18:46:09.407Z,17.80
2018-11-10T18:48:37.049Z,16.87
2018-11-10T18:51:04.811Z,16.73
2018-11-10T18:53:32.576Z,16.50
2018-11-10T18:56:01.385Z,17.03
2018-11-10T18:58:30.021Z,16.60
2018-11-10T19:00:57.607Z,16.30
2018-11-10T19:03:25.309Z,16.73
2018-11-10T19:05:53.888Z,18.20
2018-11-10T19:08:22.769Z,17.40
2018-11-10T19:10:50.453Z,20.07
2018-11-10T19:13:18.275Z,17.00
2018-11-10T19:15:47.187Z,16.50
2018-11-10T19:18:14.828Z,16.17
2018-11-10T19:20:43.492Z,15.57
2018-11-10T19:23:11.343Z,15.60
2018-11-10T19:25:39.164Z,16.00
2018-11-10T19:28:06.859Z,15.97
2018-11-10T19:30:35.139Z,17.10
2018-11-10T19:33:02.788Z,17.17
2018-11-10T19:35:30.681Z,17.27
2018-11-10T19:37:58.569Z,19.63
2018-11-10T19:40:26.884Z,25.23
2018-11-10T19:42:54.811Z,16.80
2018-11-10T19:45:22.541Z,17.97
2018-11-10T19:47:50.222Z,19.57
2018-11-10T19:50:18.188Z,20.43
2018-11-10T19:52:45.988Z,19.60
2018-11-10T19:55:15.975Z,17.80
2018-11-10T19:57:43.621Z,25.30
2018-11-10T20:00:16.488Z,26.60
2018-11-10T20:02:44.820Z,27.20
2018-11-10T20:05:14.012Z,17.23
2018-11-10T20:07:43.298Z,17.00
2018-11-10T20:10:11.921Z,25.70
2018-11-10T20:12:40.373Z,20.40
2018-11-10T20:15:10.700Z,16.33
2018-11-10T20:17:39.837Z,16.00
2018-11-10T20:20:08.926Z,16.20
2018-11-10T20:26:19.137Z,16.73
2018-11-10T20:28:46.592Z,14.70
2018-11-10T20:31:14.162Z,15.30
2018-11-10T20:33:42.181Z,14.30
2018-11-10T20:36:11.095Z,15.73
2018-11-10T20:38:39.723Z,14.63
2018-11-10T20:41:08.034Z,14.60
2018-11-10T20:43:36.806Z,15.10
2018-11-10T20:46:05.502Z,13.93
2018-11-10T20:48:33.221Z,12.87
2018-11-10T20:51:01.195Z,17.13
2018-11-10T20:53:29.209Z,15.90
2018-11-10T20:55:56.861Z,16.40
2018-11-10T20:58:24.700Z,18.50
2018-11-10T21:00:53.053Z,15.50
2018-11-10T21:03:21.033Z,14.23
2018-11-10T21:05:49.046Z,14.13
2018-11-10T21:08:18.172Z,13.47
2018-11-10T21:10:46.356Z,14.80
2018-11-10T21:13:14.454Z,14.27
2018-11-10T21:15:42.355Z,14.10
2018-11-10T21:18:09.888Z,15.23
2018-11-10T21:20:38.585Z,13.57
2018-11-10T21:23:06.780Z,14.83
2018-11-10T21:25:34.660Z,14.77
2018-11-10T21:28:02.365Z,14.20
2018-11-10T21:30:30.320Z,14.00
2018-11-10T21:32:58.475Z,14.50
2018-11-10T21:35:27.348Z,14.27
2018-11-10T21:37:55.666Z,14.57
2018-11-10T21:40:24.077Z,13.27
2018-11-10T21:42:53.114Z,14.73
2018-11-10T21:45:21.295Z,14.10
2018-11-10T21:47:51.029Z,14.40
2018-11-10T21:50:20.021Z,14.60
2018-11-10T21:52:48.708Z,14.67
2018-11-10T21:55:20.012Z,15.00
2018-11-10T21:57:48.339Z,13.50
2018-11-10T22:00:17.950Z,13.33
2018-11-10T22:02:46.298Z,13.97
2018-11-10T22:05:16.011Z,12.13
2018-11-10T22:07:44.859Z,13.10
2018-11-10T22:10:14.230Z,14.00
2018-11-10T22:12:42.451Z,13.50
2018-11-10T22:15:12.788Z,13.97
2018-11-10T22:17:41.272Z,13.87
2018-11-10T22:20:11.824Z,19.90
2018-11-10T22:22:41.033Z,18.57
2018-11-10T22:25:11.257Z,13.33
2018-11-10T22:27:40.379Z,13.20
2018-11-10T22:30:11.356Z,12.97
2018-11-10T22:32:41.390Z,12.67
2018-11-10T22:35:10.608Z,12.77
2018-11-10T22:37:39.091Z,12.10
2018-11-10T22:40:09.638Z,13.23
2018-11-10T22:42:38.173Z,12.77
2018-11-10T22:45:07.819Z,12.20
2018-11-10T22:47:36.919Z,14.73
2018-11-10T22:50:07.063Z,18.20
2018-11-10T22:52:34.992Z,18.37
2018-11-10T22:55:03.235Z,14.10
2018-11-10T22:57:31.378Z,13.23
2018-11-10T22:59:59.092Z,11.50
2018-11-10T23:02:26.735Z,12.57
2018-11-10T23:04:54.805Z,12.53
2018-11-10T23:07:23.030Z,11.80
2018-11-10T23:09:51.221Z,11.93
2018-11-10T23:12:20.345Z,54.17
2018-11-10T23:14:49.699Z,20.47
2018-11-10T23:17:18.935Z,13.40
2018-11-10T23:19:47.160Z,12.23
2018-11-10T23:22:14.964Z,11.30
2018-11-10T23:24:42.807Z,11.50
2018-11-10T23:27:10.455Z,11.83
2018-11-10T23:29:38.067Z,12.70
2018-11-10T23:32:08.491Z,13.10
2018-11-10T23:34:36.232Z,12.93
2018-11-10T23:37:05.845Z,13.70
2018-11-10T23:39:33.501Z,12.83
2018-11-10T23:42:01.142Z,12.93
2018-11-10T23:44:28.772Z,13.40
2018-11-10T23:46:56.560Z,13.10
2018-11-10T23:49:24.183Z,14.60
2018-11-10T23:51:51.852Z,16.60
2018-11-10T23:54:19.449Z,15.20
2018-11-10T23:56:47.101Z,15.77
2018-11-10T23:59:14.682Z,15.60
